Archival Weather

Heathrow

London, United Kingdom (EGLL)

Report from: Tuesday, September 19, 2023 6:20 AM BST
Current time: Wednesday, December 6, 2023 8:26 AM GMT

Current weather – Weather history – Daily summaries
Weather forecast

Temperature15.0°C (59.0°F)
Dew point11.0°C (51.8°F)
Winds 11 kts (5.7 m/s, 12.7 mph) Southwest (220°)
Visibility6.2 mi. (10 km)
Clouds Sky clear
Altimeter29.74 in.Hg (1007 mB)
Relative humidity77 %
Density altitude397 ft. (121 m)
Remarks Fully automated report
No clouds detected
No significant changes expected in the next two hours
Flight conditions Visual Meteorological Conditions
Raw dataEGLL 190520Z AUTO 22011KT 9999 NCD 15/11 Q1007 NOSIG
An error has occurred. This application may no longer respond until reloaded. Reload 🗙